createdAt,value
2018-04-10T00:00:35.825Z,13.34
2018-04-10T00:01:41.343Z,13.32
2018-04-10T00:02:47.204Z,13.39
2018-04-10T00:03:52.255Z,13.46
2018-04-10T00:04:59.075Z,13.40
2018-04-10T00:06:04.381Z,13.41
2018-04-10T00:07:09.926Z,13.49
2018-04-10T00:08:15.196Z,13.40
2018-04-10T00:09:21.034Z,13.34
2018-04-10T00:10:26.655Z,13.37
2018-04-10T00:11:32.029Z,13.42
2018-04-10T00:12:36.735Z,13.39
2018-04-10T00:13:41.542Z,13.34
2018-04-10T00:14:46.406Z,13.41
2018-04-10T00:15:51.643Z,13.32
2018-04-10T00:16:56.786Z,13.14
2018-04-10T00:18:02.776Z,12.91
2018-04-10T00:19:08.304Z,12.80
2018-04-10T00:20:14.114Z,12.83
2018-04-10T00:21:19.306Z,12.90
2018-04-10T00:22:25.670Z,12.94
2018-04-10T00:23:30.818Z,13.00
2018-04-10T00:24:36.839Z,13.04
2018-04-10T00:25:42.051Z,13.23
2018-04-10T00:26:48.054Z,13.27
2018-04-10T00:27:53.652Z,13.18
2018-04-10T00:28:58.500Z,13.23
2018-04-10T00:30:04.025Z,13.36
2018-04-10T00:31:09.328Z,13.34
2018-04-10T00:32:14.539Z,13.28
2018-04-10T00:33:19.810Z,13.28
2018-04-10T00:34:25.460Z,13.14
2018-04-10T00:35:31.147Z,12.90
2018-04-10T00:36:36.425Z,12.93
2018-04-10T00:37:41.968Z,13.01
2018-04-10T00:38:47.223Z,13.03
2018-04-10T00:39:53.361Z,13.17
2018-04-10T00:40:58.614Z,13.28
2018-04-10T00:42:03.965Z,13.20
2018-04-10T00:43:09.568Z,13.09
2018-04-10T00:44:15.175Z,12.92
2018-04-10T00:45:20.579Z,12.75
2018-04-10T00:46:26.071Z,12.69
2018-04-10T00:47:31.804Z,12.65
2018-04-10T00:48:37.109Z,12.67
2018-04-10T00:49:43.087Z,12.72
2018-04-10T00:50:49.167Z,12.89
2018-04-10T00:51:54.143Z,12.87
2018-04-10T00:53:03.940Z,12.89
2018-04-10T00:54:09.141Z,12.95
2018-04-10T00:55:13.870Z,13.01
2018-04-10T00:56:18.481Z,13.05
2018-04-10T00:57:23.400Z,12.98
2018-04-10T00:58:28.142Z,12.82
2018-04-10T00:59:32.901Z,12.79
2018-04-10T01:00:38.715Z,12.75
2018-04-10T01:01:43.537Z,12.80
2018-04-10T01:02:49.292Z,12.70
2018-04-10T01:03:54.409Z,12.73
2018-04-10T01:04:59.746Z,12.73
2018-04-10T01:06:05.084Z,12.64
2018-04-10T01:07:10.852Z,12.58
2018-04-10T01:08:16.177Z,12.61
2018-04-10T01:09:23.915Z,12.59
2018-04-10T01:10:31.067Z,12.51
2018-04-10T01:11:37.766Z,12.25
2018-04-10T01:12:45.508Z,12.15
2018-04-10T01:13:53.090Z,12.01
2018-04-10T01:15:05.176Z,12.04
2018-04-10T01:16:18.246Z,12.12
2018-04-10T01:17:31.413Z,12.27
2018-04-10T01:18:38.673Z,12.50
2018-04-10T01:19:43.869Z,12.63
2018-04-10T01:20:49.542Z,12.59
2018-04-10T01:21:55.340Z,12.53
2018-04-10T01:23:01.353Z,12.55
2018-04-10T01:24:07.006Z,12.69
2018-04-10T01:25:13.089Z,12.76
2018-04-10T01:26:19.122Z,12.80
2018-04-10T01:27:24.790Z,12.72
2018-04-10T01:28:30.303Z,12.63
2018-04-10T01:29:36.170Z,12.56
2018-04-10T01:30:41.414Z,12.50
2018-04-10T01:31:49.151Z,12.58
2018-04-10T01:32:53.835Z,12.77
2018-04-10T01:33:58.641Z,12.73
2018-04-10T01:35:04.013Z,12.69
2018-04-10T01:36:09.601Z,12.72
2018-04-10T01:37:14.767Z,12.46
2018-04-10T01:38:19.800Z,12.18
2018-04-10T01:39:26.363Z,12.01
2018-04-10T01:40:31.432Z,11.75
2018-04-10T01:41:36.913Z,11.65
2018-04-10T01:42:41.624Z,11.66
2018-04-10T01:43:46.780Z,11.84
2018-04-10T01:44:52.218Z,11.82
2018-04-10T01:45:57.407Z,11.85
2018-04-10T01:47:04.361Z,12.01
2018-04-10T01:48:09.881Z,12.07
2018-04-10T01:49:14.951Z,12.15
2018-04-10T01:50:20.560Z,12.08
2018-04-10T01:51:26.631Z,12.14
2018-04-10T01:52:32.139Z,12.19
2018-04-10T01:53:37.528Z,12.35
2018-04-10T01:54:43.167Z,12.39
2018-04-10T01:55:50.672Z,12.37
2018-04-10T01:56:55.372Z,12.39
2018-04-10T01:58:00.343Z,12.29
2018-04-10T01:59:05.234Z,12.11
2018-04-10T02:00:13.303Z,12.05
2018-04-10T02:01:17.988Z,12.11
2018-04-10T02:02:22.829Z,11.99
2018-04-10T02:03:28.224Z,11.90
2018-04-10T02:04:33.291Z,11.88
2018-04-10T02:05:38.331Z,11.91
2018-04-10T02:06:44.296Z,11.91
2018-04-10T02:07:49.768Z,11.92
2018-04-10T02:08:55.364Z,12.02
2018-04-10T02:12:45.365Z,12.08
2018-04-10T02:13:50.713Z,12.12
2018-04-10T02:14:55.589Z,12.24
2018-04-10T02:16:00.821Z,12.33
2018-04-10T02:17:05.933Z,12.27
2018-04-10T02:18:11.679Z,12.08
2018-04-10T02:19:17.709Z,12.14
2018-04-10T02:20:22.997Z,12.25
2018-04-10T02:21:28.105Z,12.22
2018-04-10T02:22:33.794Z,12.24
2018-04-10T02:23:40.080Z,12.20
2018-04-10T02:24:46.090Z,12.10
2018-04-10T02:25:51.216Z,12.00
2018-04-10T02:26:56.196Z,12.05
2018-04-10T02:28:01.871Z,12.03
2018-04-10T02:29:07.180Z,12.07
2018-04-10T02:30:12.192Z,12.07
2018-04-10T02:31:17.546Z,12.05
2018-04-10T02:32:23.755Z,12.10
2018-04-10T02:33:28.923Z,12.13
2018-04-10T02:34:35.171Z,12.11
2018-04-10T02:35:40.581Z,12.13
2018-04-10T02:36:46.516Z,12.05
2018-04-10T02:37:52.270Z,12.06
2018-04-10T02:38:57.731Z,12.01
2018-04-10T02:40:03.378Z,11.90
2018-04-10T02:41:09.387Z,11.85
2018-04-10T02:42:14.481Z,11.72
2018-04-10T02:43:19.736Z,11.75
2018-04-10T02:44:25.158Z,11.74
2018-04-10T02:45:30.390Z,11.73
2018-04-10T02:46:36.599Z,11.62
2018-04-10T02:47:42.189Z,11.50
2018-04-10T02:48:47.582Z,11.42
2018-04-10T02:49:53.918Z,11.45
2018-04-10T02:50:58.866Z,11.43
2018-04-10T02:52:04.199Z,11.30
2018-04-10T02:53:09.245Z,11.29
2018-04-10T02:54:14.480Z,11.38
2018-04-10T02:55:20.329Z,11.47
2018-04-10T02:56:26.155Z,11.45
2018-04-10T02:57:31.494Z,11.45
2018-04-10T02:58:37.588Z,11.39
2018-04-10T02:59:43.172Z,11.34
2018-04-10T03:00:47.961Z,11.26
2018-04-10T03:01:53.346Z,11.17
2018-04-10T03:02:58.670Z,11.09
2018-04-10T03:04:04.397Z,11.10
2018-04-10T03:05:09.810Z,11.03
2018-04-10T03:06:15.923Z,10.91
2018-04-10T03:07:21.112Z,10.99
2018-04-10T03:08:27.726Z,10.92
2018-04-10T03:09:32.969Z,10.81
2018-04-10T03:10:38.234Z,10.76
2018-04-10T03:11:43.875Z,10.94
2018-04-10T03:12:49.684Z,10.87
2018-04-10T03:13:55.191Z,10.88
2018-04-10T03:15:00.713Z,11.08
2018-04-10T03:16:05.981Z,11.16
2018-04-10T03:17:12.340Z,11.18
2018-04-10T03:18:17.712Z,11.17
2018-04-10T03:19:23.757Z,11.27
2018-04-10T03:20:28.670Z,11.37
2018-04-10T03:21:34.369Z,11.31
2018-04-10T03:22:39.738Z,11.31
2018-04-10T03:23:45.170Z,11.29
2018-04-10T03:24:50.622Z,11.35
2018-04-10T03:25:56.308Z,11.33
2018-04-10T03:27:02.076Z,11.49
2018-04-10T03:28:07.795Z,11.59
2018-04-10T03:29:12.908Z,11.64
2018-04-10T03:30:18.785Z,11.56
2018-04-10T03:31:24.431Z,11.56
2018-04-10T03:32:29.402Z,11.38
2018-04-10T03:33:34.818Z,11.23
2018-04-10T03:34:40.754Z,11.28
2018-04-10T03:35:46.084Z,11.35
2018-04-10T03:36:51.456Z,11.40
2018-04-10T03:37:56.768Z,11.42
2018-04-10T03:39:03.277Z,11.45
2018-04-10T03:40:08.226Z,11.46
2018-04-10T03:41:14.253Z,11.51
2018-04-10T03:42:19.989Z,11.55
2018-04-10T03:43:25.192Z,11.39
2018-04-10T03:44:30.968Z,11.29
2018-04-10T03:45:35.925Z,11.38
2018-04-10T03:46:41.380Z,11.43
2018-04-10T03:47:47.246Z,11.44
2018-04-10T03:48:54.698Z,11.27
2018-04-10T03:49:59.223Z,11.27
2018-04-10T03:51:04.182Z,11.29
2018-04-10T03:52:09.008Z,11.24
2018-04-10T03:53:14.406Z,11.26
2018-04-10T03:54:20.114Z,11.34
2018-04-10T03:55:25.147Z,11.35
2018-04-10T03:56:30.257Z,11.25
2018-04-10T03:57:36.365Z,11.05
2018-04-10T03:58:42.361Z,10.90
2018-04-10T03:59:48.094Z,10.94
2018-04-10T04:00:54.224Z,11.09
2018-04-10T04:01:59.988Z,11.17
2018-04-10T04:03:05.143Z,11.25
2018-04-10T04:04:11.239Z,11.15
2018-04-10T04:05:16.180Z,11.08
2018-04-10T04:06:23.381Z,11.17
2018-04-10T04:07:29.598Z,11.12
2018-04-10T04:08:34.302Z,10.99
2018-04-10T04:09:39.540Z,10.79
2018-04-10T04:10:44.657Z,10.74
2018-04-10T04:11:50.398Z,10.68
2018-04-10T04:12:55.369Z,10.56
2018-04-10T04:14:00.866Z,10.54
2018-04-10T04:15:06.637Z,10.52
2018-04-10T04:16:15.395Z,10.43
2018-04-10T04:17:26.001Z,10.42
2018-04-10T04:18:34.833Z,10.32
2018-04-10T04:21:49.209Z,10.23
2018-04-10T04:22:55.217Z,10.23
2018-04-10T04:24:01.103Z,10.16
2018-04-10T04:25:07.720Z,10.07
2018-04-10T04:26:12.941Z,10.03
2018-04-10T04:27:18.733Z,10.02
2018-04-10T04:28:24.226Z,10.02
2018-04-10T04:29:30.134Z,10.04
2018-04-10T04:30:35.356Z,9.98
2018-04-10T04:31:40.741Z,9.90
2018-04-10T04:32:46.497Z,9.80
2018-04-10T04:33:51.750Z,9.77
2018-04-10T04:34:57.255Z,9.79
2018-04-10T04:36:03.175Z,9.73
2018-04-10T04:37:08.197Z,9.74
2018-04-10T04:38:13.931Z,9.78
2018-04-10T04:39:19.547Z,9.82
2018-04-10T04:40:24.830Z,9.85
2018-04-10T04:41:31.101Z,9.88
2018-04-10T04:42:36.489Z,9.88
2018-04-10T04:43:41.894Z,9.86
2018-04-10T04:44:48.086Z,9.94
2018-04-10T04:45:53.447Z,9.98
2018-04-10T04:46:59.069Z,9.98
2018-04-10T04:48:04.251Z,9.92
2018-04-10T04:49:10.500Z,9.88
2018-04-10T04:50:16.120Z,9.90
2018-04-10T04:51:21.773Z,9.89
2018-04-10T04:52:27.327Z,9.95
2018-04-10T04:53:32.537Z,9.84
2018-04-10T04:54:37.664Z,9.76
2018-04-10T04:55:43.417Z,9.78
2018-04-10T04:56:49.287Z,9.80
2018-04-10T04:57:54.583Z,9.76
2018-04-10T04:59:00.128Z,9.78
2018-04-10T05:00:06.458Z,9.79
2018-04-10T05:01:11.878Z,9.85
2018-04-10T05:02:16.808Z,9.86
2018-04-10T05:03:22.458Z,9.84
2018-04-10T05:04:28.039Z,9.86
2018-04-10T05:05:34.246Z,9.86
2018-04-10T05:06:39.544Z,9.80
2018-04-10T05:07:45.762Z,9.73
2018-04-10T05:08:50.805Z,9.72
2018-04-10T05:09:55.842Z,9.79
2018-04-10T05:11:04.910Z,9.81
2018-04-10T05:12:17.355Z,9.76
2018-04-10T05:13:23.634Z,9.75
2018-04-10T05:14:33.495Z,9.75
2018-04-10T05:15:40.077Z,9.73
2018-04-10T05:16:55.066Z,9.76
2018-04-10T05:18:07.213Z,9.76
2018-04-10T05:19:23.276Z,9.85
2018-04-10T05:20:35.138Z,10.01
2018-04-10T05:21:42.980Z,10.11
2018-04-10T05:22:48.930Z,10.05
2018-04-10T05:23:54.297Z,10.02
2018-04-10T05:25:00.508Z,9.91
2018-04-10T05:26:07.078Z,9.82
2018-04-10T05:27:12.557Z,9.92
2018-04-10T05:28:19.245Z,9.92
2018-04-10T05:29:24.548Z,9.95
2018-04-10T05:30:30.477Z,9.95
2018-04-10T05:31:35.956Z,9.95
2018-04-10T05:32:42.502Z,9.99
2018-04-10T05:33:48.194Z,9.98
2018-04-10T05:34:52.914Z,9.98
2018-04-10T05:35:58.195Z,9.97
2018-04-10T05:37:04.126Z,10.04
2018-04-10T05:38:09.530Z,10.12
2018-04-10T05:39:15.448Z,10.13
2018-04-10T05:40:20.518Z,10.17
2018-04-10T05:41:26.362Z,10.10
2018-04-10T05:42:31.733Z,10.26
2018-04-10T05:43:37.844Z,10.36
2018-04-10T05:44:43.819Z,10.37
2018-04-10T05:45:49.457Z,10.38
2018-04-10T05:46:54.575Z,10.36
2018-04-10T05:47:59.452Z,10.45
2018-04-10T05:49:04.974Z,10.40
2018-04-10T05:50:10.734Z,10.44
2018-04-10T05:51:16.105Z,10.36
2018-04-10T05:52:21.652Z,10.46
2018-04-10T05:53:26.607Z,10.55
2018-04-10T05:54:32.451Z,10.60
2018-04-10T05:55:38.451Z,10.57
2018-04-10T05:56:43.557Z,10.68
2018-04-10T05:57:49.109Z,10.86
2018-04-10T05:58:56.054Z,10.91
2018-04-10T06:00:01.459Z,10.94
2018-04-10T06:01:06.796Z,10.74
2018-04-10T06:02:12.556Z,10.84
2018-04-10T06:03:24.390Z,10.81
2018-04-10T06:04:29.849Z,10.84
2018-04-10T06:05:35.173Z,10.92
2018-04-10T06:06:39.887Z,11.03
2018-04-10T06:07:48.260Z,11.03
2018-04-10T06:08:56.049Z,11.20
2018-04-10T06:10:01.020Z,11.29
2018-04-10T06:11:07.735Z,11.23
2018-04-10T06:12:13.180Z,10.94
2018-04-10T06:13:19.188Z,10.90
2018-04-10T06:14:24.418Z,10.86
2018-04-10T07:27:46.452Z,13.29
2018-04-10T07:28:51.570Z,13.34
2018-04-10T07:29:57.195Z,13.37
2018-04-10T07:31:03.363Z,13.19
2018-04-10T07:32:08.296Z,13.01
2018-04-10T07:33:13.396Z,13.01
2018-04-10T07:34:18.995Z,12.96
2018-04-10T07:35:27.045Z,13.00
2018-04-10T07:36:32.485Z,13.08
2018-04-10T07:37:37.638Z,13.14
2018-04-10T07:38:42.515Z,13.24
2018-04-10T08:17:26.827Z,14.35
2018-04-10T08:18:32.362Z,14.43
2018-04-10T08:19:37.928Z,14.62
2018-04-10T08:20:43.555Z,14.60
2018-04-10T08:21:49.181Z,14.70
2018-04-10T08:22:54.689Z,14.99
2018-04-10T08:36:24.048Z,16.08
2018-04-10T08:37:30.333Z,16.40
2018-04-10T08:38:37.020Z,16.52
2018-04-10T08:39:43.474Z,16.29
2018-04-10T08:40:50.102Z,16.65
2018-04-10T08:41:56.447Z,16.53
2018-04-10T08:55:27.741Z,17.37
2018-04-10T08:56:32.405Z,18.06
2018-04-10T08:57:37.179Z,18.57
2018-04-10T08:58:42.470Z,18.99
2018-04-10T08:59:47.753Z,19.23
2018-04-10T09:00:53.402Z,19.35
2018-04-10T09:01:59.098Z,19.19
2018-04-10T09:03:04.020Z,18.96
2018-04-10T09:04:10.815Z,19.26
2018-04-10T09:05:15.593Z,18.87
2018-04-10T09:06:20.559Z,18.37
2018-04-10T09:07:25.922Z,18.22
2018-04-10T09:08:30.878Z,17.92
2018-04-10T09:09:35.899Z,17.90
2018-04-10T09:10:40.945Z,18.06
2018-04-10T09:11:46.471Z,18.03
2018-04-10T09:12:52.138Z,17.89
2018-04-10T09:13:57.173Z,17.97
2018-04-10T09:15:01.888Z,17.81
2018-04-10T09:16:07.394Z,17.67
2018-04-10T09:17:12.097Z,17.37
2018-04-10T09:18:17.841Z,17.26
2018-04-10T09:19:23.075Z,17.40
2018-04-10T09:20:28.949Z,17.62
2018-04-10T09:21:33.781Z,17.07
2018-04-10T09:22:40.457Z,17.01
2018-04-10T09:23:45.610Z,16.65
2018-04-10T09:24:51.394Z,16.62
2018-04-10T09:25:56.721Z,16.69
2018-04-10T09:27:02.003Z,16.81
2018-04-10T09:28:07.697Z,17.04
2018-04-10T09:29:12.774Z,17.06
2018-04-10T09:30:18.628Z,16.93
2018-04-10T09:31:24.597Z,16.96
2018-04-10T09:32:30.628Z,16.93
2018-04-10T09:33:36.405Z,16.79
2018-04-10T09:34:43.290Z,16.59
2018-04-10T09:35:48.354Z,16.74
2018-04-10T09:36:54.381Z,16.76
2018-04-10T09:37:59.327Z,16.77
2018-04-10T09:39:06.015Z,16.83
2018-04-10T09:40:11.725Z,16.73
2018-04-10T09:41:16.751Z,16.26
2018-04-10T09:42:24.369Z,16.45
2018-04-10T09:43:29.076Z,16.77
2018-04-10T09:44:34.747Z,16.71
2018-04-10T09:45:40.069Z,16.78
2018-04-10T09:46:45.326Z,16.80
2018-04-10T09:47:52.914Z,16.68
2018-04-10T09:48:57.662Z,16.93
2018-04-10T09:50:02.726Z,17.04
2018-04-10T09:51:07.672Z,17.10
2018-04-10T09:52:12.770Z,17.06
2018-04-10T09:53:18.585Z,17.13
2018-04-10T09:54:24.538Z,16.88
2018-04-10T09:55:29.733Z,16.79
2018-04-10T09:56:47.086Z,16.66
2018-04-10T09:57:57.385Z,16.43
2018-04-10T09:59:10.242Z,16.41
2018-04-10T10:00:23.243Z,16.21
2018-04-10T10:01:29.486Z,16.23
2018-04-10T10:02:35.531Z,16.22
2018-04-10T10:03:40.491Z,16.37
2018-04-10T10:04:45.868Z,16.42
2018-04-10T10:05:52.173Z,16.74
2018-04-10T10:06:58.377Z,16.81
2018-04-10T10:08:03.491Z,16.80
2018-04-10T10:09:09.139Z,16.82
2018-04-10T10:10:14.000Z,16.86
2018-04-10T10:11:19.816Z,16.96
2018-04-10T10:12:25.883Z,17.20
2018-04-10T10:13:31.656Z,17.32
2018-04-10T10:14:37.387Z,17.51
2018-04-10T10:15:42.323Z,17.55
2018-04-10T10:23:22.761Z,17.46
2018-04-10T10:24:29.849Z,17.43
2018-04-10T10:25:35.762Z,17.26
2018-04-10T10:26:41.443Z,17.26
2018-04-10T10:27:47.080Z,17.20
2018-04-10T10:28:54.208Z,17.13
2018-04-10T10:29:59.815Z,17.28
2018-04-10T10:31:04.764Z,17.60
2018-04-10T10:32:09.786Z,17.83
2018-04-10T10:33:14.530Z,18.00
2018-04-10T10:34:19.199Z,17.88
2018-04-10T10:35:25.262Z,17.98
2018-04-10T10:36:30.445Z,18.24
2018-04-10T10:37:35.137Z,18.45
2018-04-10T10:38:39.760Z,18.41
2018-04-10T10:39:44.839Z,18.35
2018-04-10T10:40:49.672Z,18.47
2018-04-10T10:41:54.447Z,18.31
2018-04-10T10:42:59.530Z,18.17
2018-04-10T10:44:04.975Z,18.28
2018-04-10T10:45:11.125Z,18.30
2018-04-10T10:46:17.816Z,18.66
2018-04-10T10:47:22.504Z,18.55
2018-04-10T10:48:27.260Z,18.64
2018-04-10T10:49:32.475Z,18.84
2018-04-10T10:50:37.624Z,18.83
2018-04-10T10:51:42.330Z,18.42
2018-04-10T10:52:54.406Z,18.03
2018-04-10T10:53:59.155Z,17.81
2018-04-10T10:55:03.779Z,18.21
2018-04-10T10:56:09.192Z,18.55
2018-04-10T10:57:13.921Z,18.79
2018-04-10T10:58:18.587Z,18.90
2018-04-10T10:59:23.339Z,19.13
2018-04-10T11:00:28.211Z,19.34
2018-04-10T11:01:33.012Z,19.28
2018-04-10T11:02:38.369Z,19.02
2018-04-10T11:03:42.983Z,19.15
2018-04-10T11:04:47.691Z,19.36
2018-04-10T11:05:52.635Z,19.59
2018-04-10T11:06:57.438Z,19.36
2018-04-10T11:08:02.057Z,19.47
2018-04-10T11:09:07.187Z,19.07
2018-04-10T11:10:12.030Z,18.53
2018-04-10T11:11:18.438Z,18.45
2018-04-10T11:12:23.010Z,18.38
2018-04-10T11:13:27.699Z,18.29
2018-04-10T11:14:32.394Z,18.57
2018-04-10T11:15:38.981Z,18.90
2018-04-10T11:16:45.531Z,18.65
2018-04-10T11:17:50.531Z,18.97
2018-04-10T11:18:55.859Z,19.55
2018-04-10T11:20:01.918Z,20.03
2018-04-10T11:21:06.660Z,20.57
2018-04-10T11:22:11.702Z,20.49
2018-04-10T11:23:16.637Z,20.49
2018-04-10T11:24:23.178Z,20.84
2018-04-10T11:25:31.056Z,21.02
2018-04-10T11:26:36.090Z,21.18
2018-04-10T11:27:43.298Z,20.37
2018-04-10T11:28:48.984Z,20.47
2018-04-10T11:29:54.428Z,20.46
2018-04-10T11:30:59.156Z,19.76
2018-04-10T11:32:04.734Z,19.80
2018-04-10T11:33:10.173Z,19.58
2018-04-10T11:34:15.080Z,19.62
2018-04-10T11:35:20.139Z,19.59
2018-04-10T11:36:24.671Z,19.63
2018-04-10T11:37:29.743Z,20.39
2018-04-10T11:38:34.418Z,20.57
2018-04-10T11:39:40.152Z,20.30
2018-04-10T11:40:44.765Z,19.99
2018-04-10T11:41:49.628Z,19.86
2018-04-10T11:42:56.774Z,20.14
2018-04-10T11:44:01.352Z,20.49
2018-04-10T11:45:06.242Z,20.16
2018-04-10T11:46:12.081Z,20.83
2018-04-10T11:47:16.913Z,21.18
2018-04-10T11:48:22.038Z,21.48
2018-04-10T11:49:26.734Z,21.79
2018-04-10T11:50:31.751Z,21.30
2018-04-10T11:51:36.345Z,20.75
2018-04-10T11:52:41.004Z,20.88
2018-04-10T11:53:46.215Z,20.88
2018-04-10T11:54:51.945Z,21.05
2018-04-10T11:55:56.606Z,21.02
2018-04-10T11:57:01.848Z,21.34
2018-04-10T11:58:06.642Z,21.78
2018-04-10T11:59:13.825Z,22.11
2018-04-10T12:00:22.203Z,22.29
2018-04-10T12:01:28.102Z,22.46
2018-04-10T12:02:34.235Z,22.94
2018-04-10T12:03:40.370Z,23.21
2018-04-10T12:04:45.819Z,23.29
2018-04-10T12:05:50.415Z,22.07
2018-04-10T12:06:55.773Z,22.00
2018-04-10T12:08:03.962Z,22.49
2018-04-10T12:09:09.124Z,23.04
2018-04-10T12:10:13.741Z,23.42
2018-04-10T12:11:18.698Z,22.63
2018-04-10T12:12:23.518Z,22.00
2018-04-10T12:13:28.386Z,21.96
2018-04-10T12:14:32.986Z,21.85
2018-04-10T12:15:38.550Z,21.94
2018-04-10T12:16:43.259Z,21.50
2018-04-10T12:17:48.421Z,21.19
2018-04-10T12:18:53.584Z,21.37
2018-04-10T12:19:59.187Z,21.45
2018-04-10T12:21:06.047Z,21.53
2018-04-10T12:22:11.392Z,22.11
2018-04-10T12:23:16.064Z,22.70
2018-04-10T12:24:22.232Z,22.05
2018-04-10T12:25:28.477Z,22.10
2018-04-10T12:26:33.401Z,22.48
2018-04-10T12:27:42.490Z,22.92
2018-04-10T12:28:51.546Z,22.56
2018-04-10T12:29:58.326Z,23.06
2018-04-10T12:31:06.194Z,23.64
2018-04-10T12:32:18.361Z,23.78
2018-04-10T12:33:23.234Z,23.42
2018-04-10T12:34:28.432Z,22.35
2018-04-10T12:35:34.716Z,21.85
2018-04-10T12:36:39.589Z,22.33
2018-04-10T12:37:44.392Z,22.14
2018-04-10T12:38:49.426Z,21.45
2018-04-10T12:39:54.034Z,21.72
2018-04-10T12:40:59.045Z,22.44
2018-04-10T12:42:05.401Z,23.19
2018-04-10T12:43:10.156Z,23.31
2018-04-10T12:44:14.915Z,22.97
2018-04-10T12:45:20.998Z,23.18
2018-04-10T12:46:25.667Z,22.67
2018-04-10T12:47:30.612Z,22.48
2018-04-10T12:48:36.932Z,22.70
2018-04-10T12:49:44.075Z,21.87
2018-04-10T19:00:59.236Z,13.21
2018-04-10T19:02:03.892Z,13.25
2018-04-10T19:03:10.298Z,13.18
2018-04-10T19:04:17.281Z,13.08
2018-04-10T19:05:21.962Z,12.86
2018-04-10T19:06:26.627Z,12.87
2018-04-10T19:07:31.447Z,12.95
2018-04-10T19:08:40.499Z,13.12
2018-04-10T19:09:45.842Z,13.19
2018-04-10T19:10:50.451Z,13.19
2018-04-10T19:11:55.152Z,13.30
2018-04-10T19:12:59.873Z,13.28
2018-04-10T19:14:04.884Z,13.31
2018-04-10T19:15:09.541Z,13.44
2018-04-10T19:16:14.226Z,13.48
2018-04-10T19:17:18.875Z,13.25
2018-04-10T19:18:23.674Z,13.24
2018-04-10T19:19:28.381Z,13.18
2018-04-10T19:20:33.398Z,13.13
2018-04-10T19:21:38.146Z,13.09
2018-04-10T19:22:43.002Z,12.95
2018-04-10T19:23:47.805Z,12.84
2018-04-10T19:24:52.552Z,12.85
2018-04-10T19:25:59.206Z,12.75
2018-04-10T19:27:04.544Z,12.85
2018-04-10T19:28:09.455Z,12.81
2018-04-10T19:29:14.225Z,12.88
2018-04-10T19:30:18.976Z,12.86
2018-04-10T19:31:23.633Z,12.92
2018-04-10T19:32:28.385Z,13.02
2018-04-10T19:33:33.412Z,13.04
2018-04-10T19:34:38.205Z,13.10
2018-04-10T19:35:44.386Z,13.18
2018-04-10T19:36:49.177Z,13.26
2018-04-10T19:37:53.846Z,13.21
2018-04-10T19:38:58.519Z,13.28
2018-04-10T19:40:03.583Z,13.22
2018-04-10T19:41:08.265Z,13.21
2018-04-10T19:42:12.969Z,13.34
2018-04-10T19:43:17.622Z,13.34
2018-04-10T19:44:22.379Z,13.30
2018-04-10T19:45:27.063Z,13.31
2018-04-10T19:46:32.091Z,13.39
2018-04-10T19:47:36.881Z,13.40
2018-04-10T19:48:41.902Z,13.36
2018-04-10T19:49:46.482Z,13.39
2018-04-10T19:50:51.224Z,13.39
2018-04-10T19:51:56.854Z,13.41
2018-04-10T19:53:01.884Z,13.44
2018-04-10T19:54:06.651Z,13.54
2018-04-10T19:55:11.417Z,13.57
2018-04-10T19:56:16.214Z,13.34
2018-04-10T19:57:21.030Z,13.11
2018-04-10T19:58:25.838Z,13.02
2018-04-10T19:59:30.762Z,13.03
2018-04-10T20:00:35.401Z,13.05
2018-04-10T20:01:40.008Z,13.21
2018-04-10T20:02:44.722Z,13.24
2018-04-10T20:03:49.438Z,13.36
2018-04-10T20:04:54.076Z,13.41
2018-04-10T20:05:59.038Z,13.50
2018-04-10T20:07:03.845Z,13.55
2018-04-10T20:08:08.646Z,13.59
2018-04-10T20:09:13.359Z,13.61
2018-04-10T20:10:18.226Z,13.54
2018-04-10T20:11:23.047Z,13.56
2018-04-10T20:12:28.141Z,13.56
2018-04-10T20:13:33.069Z,13.64
2018-04-10T20:14:37.859Z,13.65
2018-04-10T20:15:42.662Z,13.63
2018-04-10T20:16:47.412Z,13.55
2018-04-10T20:17:52.186Z,13.13
2018-04-10T20:18:57.406Z,12.94
2018-04-10T20:20:02.314Z,12.92
2018-04-10T20:21:07.126Z,12.82
2018-04-10T20:22:11.735Z,12.74
2018-04-10T20:23:16.329Z,12.71
2018-04-10T20:24:20.897Z,12.62
2018-04-10T20:25:26.540Z,12.63
2018-04-10T20:26:31.087Z,12.65
2018-04-10T20:27:35.712Z,12.53
2018-04-10T20:28:40.267Z,12.50
2018-04-10T20:29:44.844Z,12.44
2018-04-10T20:30:49.562Z,12.41
2018-04-10T20:31:54.678Z,12.43
2018-04-10T20:32:59.555Z,12.28
2018-04-10T20:34:07.571Z,12.28
2018-04-10T20:35:12.238Z,12.31
2018-04-10T20:36:16.856Z,12.47
2018-04-10T20:37:21.489Z,12.37
2018-04-10T20:38:26.386Z,12.38
2018-04-10T20:39:31.772Z,12.37
2018-04-10T20:40:36.496Z,12.31
2018-04-10T20:41:41.194Z,12.38
2018-04-10T20:42:45.702Z,12.33
2018-04-10T20:43:50.280Z,12.39
2018-04-10T20:44:55.908Z,12.39
2018-04-10T20:46:00.740Z,12.38
2018-04-10T20:47:05.512Z,12.58
2018-04-10T20:48:10.314Z,12.57
2018-04-10T20:49:14.959Z,12.59
2018-04-10T20:50:19.577Z,12.58
2018-04-10T20:51:24.477Z,12.67
2018-04-10T20:52:29.073Z,12.71
2018-04-10T20:53:33.659Z,12.70
2018-04-10T20:54:38.504Z,12.73
2018-04-10T20:55:43.349Z,12.78
2018-04-10T20:56:48.112Z,12.80
2018-04-10T20:57:53.122Z,12.92
2018-04-10T20:58:57.919Z,12.99
2018-04-10T21:00:02.697Z,13.04
2018-04-10T21:01:07.421Z,13.03
2018-04-10T21:02:12.670Z,13.09
2018-04-10T21:03:18.239Z,13.01
2018-04-10T21:04:24.245Z,12.97
2018-04-10T21:05:29.127Z,12.89
2018-04-10T21:06:33.776Z,12.88
2018-04-10T21:07:38.525Z,12.94
2018-04-10T21:08:43.327Z,13.00
2018-04-10T21:09:48.207Z,12.93
2018-04-10T21:10:53.224Z,12.75
2018-04-10T21:11:57.953Z,12.82
2018-04-10T21:13:03.054Z,12.71
2018-04-10T21:14:07.765Z,12.60
2018-04-10T21:15:12.463Z,12.73
2018-04-10T21:16:17.154Z,12.81
2018-04-10T21:17:22.385Z,12.87
2018-04-10T21:18:27.089Z,12.87
2018-04-10T21:19:31.932Z,12.83
2018-04-10T21:20:37.056Z,12.84
2018-04-10T21:21:41.828Z,12.87
2018-04-10T21:22:46.543Z,12.76
2018-04-10T21:23:51.574Z,12.61
2018-04-10T21:24:56.289Z,12.64
2018-04-10T21:26:01.113Z,12.68
2018-04-10T21:27:06.770Z,12.65
2018-04-10T21:28:11.462Z,12.61
2018-04-10T21:29:16.222Z,12.70
2018-04-10T21:30:21.434Z,12.72
2018-04-10T21:31:26.161Z,12.73
2018-04-10T21:32:31.000Z,12.73
2018-04-10T21:33:35.727Z,12.53
2018-04-10T21:34:40.990Z,12.56
2018-04-10T21:35:45.719Z,12.53
2018-04-10T21:36:50.829Z,12.49
2018-04-10T21:37:55.560Z,12.36
2018-04-10T21:39:00.306Z,12.26
2018-04-10T21:40:04.951Z,12.21
2018-04-10T21:41:09.466Z,12.20
2018-04-10T21:42:13.997Z,12.28
2018-04-10T21:43:22.866Z,12.25
2018-04-10T21:44:27.556Z,12.24
2018-04-10T21:45:32.293Z,12.13
2018-04-10T21:46:36.963Z,12.08
2018-04-10T21:47:41.691Z,12.11
2018-04-10T21:48:46.381Z,12.17
2018-04-10T21:49:51.345Z,12.19
2018-04-10T21:50:56.025Z,12.14
2018-04-10T21:52:00.828Z,12.08
2018-04-10T21:53:05.562Z,12.21
2018-04-10T21:54:10.233Z,12.22
2018-04-10T21:55:14.816Z,12.06
2018-04-10T21:56:19.714Z,12.00
2018-04-10T21:57:24.247Z,12.09
2018-04-10T21:58:28.814Z,11.94
2018-04-10T21:59:33.587Z,11.87
2018-04-10T22:00:38.396Z,11.94
2018-04-10T22:01:43.125Z,11.95
2018-04-10T22:02:48.137Z,11.92
2018-04-10T22:03:52.872Z,11.92
2018-04-10T22:04:57.998Z,11.91
2018-04-10T22:06:02.799Z,11.87
2018-04-10T22:07:07.460Z,11.90
2018-04-10T22:08:12.487Z,11.87
2018-04-10T22:09:17.399Z,11.85
2018-04-10T22:10:22.034Z,11.98
2018-04-10T22:11:26.777Z,11.94
2018-04-10T22:12:31.485Z,11.95
2018-04-10T22:13:36.247Z,11.93
2018-04-10T22:14:40.936Z,12.07
2018-04-10T22:15:46.152Z,11.95
2018-04-10T22:16:50.861Z,12.00
2018-04-10T22:17:55.563Z,12.09
2018-04-10T22:19:00.381Z,12.01
2018-04-10T22:20:05.053Z,11.98
2018-04-10T22:21:09.751Z,11.95
2018-04-10T22:22:14.721Z,11.96
2018-04-10T22:23:19.426Z,11.81
2018-04-10T22:24:24.128Z,11.70
2018-04-10T22:25:28.744Z,11.68
2018-04-10T22:26:33.376Z,11.54
2018-04-10T22:27:38.126Z,11.08
2018-04-10T22:28:43.040Z,11.09
2018-04-10T22:29:47.666Z,10.94
2018-04-10T22:30:53.460Z,10.96
2018-04-10T22:31:58.195Z,10.86
2018-04-10T22:33:02.826Z,10.84
2018-04-10T22:34:07.467Z,10.77
2018-04-10T22:35:12.402Z,10.64
2018-04-10T22:36:16.882Z,10.62
2018-04-10T22:37:21.322Z,10.62
2018-04-10T22:38:25.792Z,10.68
2018-04-10T22:39:30.243Z,10.60
2018-04-10T22:40:34.703Z,10.58
2018-04-10T22:41:39.546Z,10.52
2018-04-10T22:42:44.084Z,10.64